createdAt,value
2022-12-23T00:00:56.230Z,99179.56
2022-12-23T00:03:26.221Z,99188.38
2022-12-23T00:05:56.027Z,99197.13
2022-12-23T00:08:26.801Z,99195.28
2022-12-23T00:10:57.612Z,99199.63
2022-12-23T00:13:42.264Z,99203.94
2022-12-23T00:16:13.492Z,99200.38
2022-12-23T00:18:43.630Z,99189.81
2022-12-23T00:21:15.462Z,99191.63
2022-12-23T00:23:46.914Z,99189.81
2022-12-23T00:26:18.077Z,99194.25
2022-12-23T00:28:50.608Z,99197.72
2022-12-23T00:31:21.483Z,99188.97
2022-12-23T00:33:53.524Z,99187.16
2022-12-23T00:36:25.657Z,99193.28
2022-12-23T00:39:07.727Z,99197.72
2022-12-23T00:41:50.343Z,99195.94
2022-12-23T00:44:23.052Z,99201.31
2022-12-23T00:46:52.906Z,99207.38
2022-12-23T00:49:35.660Z,99201.16
2022-12-23T00:52:06.709Z,99206.34
2022-12-23T00:54:36.417Z,99211.72
2022-12-23T00:57:06.728Z,99209.91
2022-12-23T00:59:39.374Z,99215.13
2022-12-23T01:02:21.487Z,99208.91
2022-12-23T01:05:03.597Z,99208.03
2022-12-23T01:07:33.226Z,99212.47
2022-12-23T01:10:02.875Z,99217.75
2022-12-23T01:12:32.460Z,99216.03
2022-12-23T01:15:04.692Z,99221.34
2022-12-23T01:17:34.295Z,99224.06
2022-12-23T01:20:03.902Z,99230.28
2022-12-23T01:22:33.478Z,99228.50
2022-12-23T01:25:03.073Z,99228.50
2022-12-23T01:27:32.670Z,99235.50
2022-12-23T01:30:04.862Z,99244.19
2022-12-23T01:32:34.486Z,99256.47
2022-12-23T01:35:04.082Z,99245.78
2022-12-23T01:37:33.652Z,99251.78
2022-12-23T01:40:03.241Z,99250.81
2022-12-23T01:42:45.275Z,99248.16
2022-12-23T01:45:28.112Z,99241.94
2022-12-23T01:47:59.025Z,99250.72
2022-12-23T01:50:31.631Z,99255.25
2022-12-23T01:53:07.768Z,99258.66
2022-12-23T01:55:42.303Z,99262.16
2022-12-23T01:58:14.484Z,99259.41
2022-12-23T02:00:59.665Z,99268.19
2022-12-23T02:03:41.839Z,99272.53
2022-12-23T02:06:24.439Z,99264.63
2022-12-23T02:09:06.479Z,99267.25
2022-12-23T02:12:08.404Z,99263.78
2022-12-23T02:15:02.214Z,99258.50
2022-12-23T02:17:39.933Z,99259.41
2022-12-23T02:20:38.780Z,99258.59
2022-12-23T02:23:31.595Z,99262.06
2022-12-23T02:26:13.027Z,99265.56
2022-12-23T02:29:03.849Z,99268.09
2022-12-23T02:31:41.160Z,99275.97
2022-12-23T02:34:18.708Z,99282.09
2022-12-23T02:36:52.072Z,99290.88
2022-12-23T02:42:49.954Z,99294.28
2022-12-23T02:45:23.617Z,99295.13
2022-12-23T02:47:59.490Z,99308.25
2022-12-23T02:50:33.359Z,99302.97
2022-12-23T02:53:10.126Z,99300.22
2022-12-23T02:55:41.121Z,99305.44
2022-12-23T02:58:13.205Z,99309.78
2022-12-23T03:00:44.199Z,99316.78
2022-12-23T03:03:17.528Z,99310.56
2022-12-23T03:05:48.397Z,99311.41
2022-12-23T03:08:19.767Z,99311.31
2022-12-23T03:11:07.852Z,99317.38
2022-12-23T03:13:48.881Z,99320.00
2022-12-23T03:16:24.549Z,99328.03
2022-12-23T03:19:05.945Z,99336.06
2022-12-23T03:21:39.813Z,99345.75
2022-12-23T03:24:18.248Z,99348.50
2022-12-23T03:26:52.251Z,99359.94
2022-12-23T03:29:27.875Z,99358.13
2022-12-23T03:31:58.107Z,99359.94
2022-12-23T03:34:33.072Z,99361.63
2022-12-23T03:37:06.199Z,99356.25
2022-12-23T03:39:38.657Z,99351.94
2022-12-23T03:42:16.762Z,99344.84
2022-12-23T03:45:11.071Z,99348.41
2022-12-23T03:47:42.078Z,99344.91
2022-12-23T03:50:15.796Z,99349.19
2022-12-23T03:52:49.042Z,99360.59
2022-12-23T03:55:21.625Z,99352.75
2022-12-23T03:57:56.735Z,99358.22
2022-12-23T04:00:26.250Z,99350.41
2022-12-23T04:03:00.935Z,99353.03
2022-12-23T04:05:35.380Z,99346.03
2022-12-23T04:08:07.789Z,99343.41
2022-12-23T04:10:37.792Z,99345.25
2022-12-23T04:13:07.872Z,99347.16
2022-12-23T04:15:41.955Z,99352.53
2022-12-23T04:18:11.553Z,99356.94
2022-12-23T04:20:43.630Z,99357.97
2022-12-23T04:23:13.379Z,99353.63
2022-12-23T04:25:43.230Z,99343.91
2022-12-23T04:28:12.718Z,99346.38
2022-12-23T04:30:42.245Z,99346.28
2022-12-23T04:33:13.204Z,99350.53
2022-12-23T04:35:45.266Z,99360.09
2022-12-23T04:38:14.779Z,99353.78
2022-12-23T04:40:48.346Z,99354.56
2022-12-23T04:43:17.807Z,99358.88
2022-12-23T04:45:52.838Z,99357.22
2022-12-23T04:48:22.392Z,99351.94
2022-12-23T04:50:54.469Z,99354.66
2022-12-23T04:53:24.217Z,99352.94
2022-12-23T04:55:53.794Z,99357.34
2022-12-23T04:58:25.117Z,99357.34
2022-12-23T05:01:04.064Z,99360.88
2022-12-23T05:03:33.751Z,99364.44
2022-12-23T05:06:06.316Z,99368.91
2022-12-23T05:08:35.847Z,99367.09
2022-12-23T05:11:05.328Z,99371.53
2022-12-23T05:13:34.892Z,99371.44
2022-12-23T05:16:04.400Z,99378.34
2022-12-23T05:18:33.897Z,99378.19
2022-12-23T05:21:06.235Z,99383.28
2022-12-23T05:23:35.737Z,99384.16
2022-12-23T05:26:05.295Z,99388.38
2022-12-23T05:28:34.851Z,99378.69
2022-12-23T05:31:05.858Z,99373.31
2022-12-23T05:33:36.059Z,99372.38
2022-12-23T05:36:09.209Z,99377.56
2022-12-23T05:38:38.677Z,99379.34
2022-12-23T05:41:09.589Z,99374.00
2022-12-23T05:43:39.057Z,99378.31
2022-12-23T05:46:08.599Z,99381.75
2022-12-23T05:48:38.098Z,99376.47
2022-12-23T05:51:10.246Z,99384.31
2022-12-23T05:53:39.745Z,99386.00
2022-12-23T05:56:10.431Z,99397.34
2022-12-23T05:58:39.946Z,99400.75
2022-12-23T06:01:10.492Z,99399.81
2022-12-23T06:03:40.171Z,99407.69
2022-12-23T06:06:12.413Z,99412.88
2022-12-23T06:08:41.895Z,99413.72
2022-12-23T06:11:12.815Z,99415.34
2022-12-23T06:13:42.296Z,99423.19
2022-12-23T06:16:11.785Z,99420.44
2022-12-23T06:18:41.262Z,99422.34
2022-12-23T06:21:13.321Z,99417.78
2022-12-23T06:23:42.802Z,99417.69
2022-12-23T06:26:12.484Z,99413.28
2022-12-23T06:28:41.982Z,99407.06
2022-12-23T06:31:11.479Z,99406.00
2022-12-23T06:33:40.912Z,99409.53
2022-12-23T06:36:13.436Z,99413.00
2022-12-23T06:38:42.921Z,99409.53
2022-12-23T06:41:12.416Z,99405.94
2022-12-23T06:43:41.957Z,99399.69
2022-12-23T06:46:11.534Z,99398.00
2022-12-23T06:48:41.092Z,99390.06
2022-12-23T06:51:14.611Z,99395.38
2022-12-23T06:53:44.070Z,99390.06
2022-12-23T06:56:13.976Z,99395.28
2022-12-23T06:58:43.501Z,99400.47
2022-12-23T07:01:13.034Z,99404.81
2022-12-23T07:03:42.559Z,99401.22
2022-12-23T07:06:14.830Z,99403.78
2022-12-23T07:08:44.327Z,99389.69
2022-12-23T07:11:14.202Z,99393.13
2022-12-23T07:13:43.700Z,99393.13
2022-12-23T07:16:13.286Z,99412.50
2022-12-23T07:18:43.459Z,99422.13
2022-12-23T07:21:22.933Z,99433.66
2022-12-23T07:23:58.043Z,99456.53
2022-12-23T07:26:27.670Z,99457.38
2022-12-23T07:28:57.198Z,99453.88
2022-12-23T07:31:26.791Z,99468.88
2022-12-23T07:33:56.361Z,99468.75
2022-12-23T07:36:28.525Z,99472.13
2022-12-23T07:38:58.125Z,99474.69
2022-12-23T07:41:27.611Z,99466.66
2022-12-23T07:43:57.053Z,99473.66
2022-12-23T07:46:26.608Z,99463.00
2022-12-23T07:48:56.106Z,99471.81
2022-12-23T07:51:28.560Z,99463.78
2022-12-23T07:53:58.182Z,99473.47
2022-12-23T07:56:27.683Z,99473.47
2022-12-23T07:58:57.542Z,99479.56
2022-12-23T08:01:27.181Z,99481.25
2022-12-23T08:03:56.832Z,99461.72
2022-12-23T08:06:28.968Z,99461.63
2022-12-23T08:08:58.446Z,99460.66
2022-12-23T08:11:27.907Z,99458.00
2022-12-23T08:13:57.379Z,99459.72
2022-12-23T08:16:26.868Z,99453.50
2022-12-23T08:18:56.352Z,99440.16
2022-12-23T08:21:25.821Z,99442.56
2022-12-23T08:23:57.866Z,99453.00
2022-12-23T08:26:28.354Z,99455.56
2022-12-23T08:28:57.968Z,99448.25
2022-12-23T08:31:28.935Z,99444.59
2022-12-23T08:33:59.800Z,99450.56
2022-12-23T08:36:31.670Z,99440.56
2022-12-23T08:39:05.655Z,99440.38
2022-12-23T08:41:38.752Z,99433.25
2022-12-23T08:44:08.729Z,99435.91
2022-12-23T08:46:39.257Z,99442.34
2022-12-23T08:49:09.435Z,99430.31
2022-12-23T08:51:40.021Z,99436.72
2022-12-23T08:54:12.295Z,99433.16
2022-12-23T08:56:43.331Z,99448.94
2022-12-23T08:59:19.230Z,99425.78
2022-12-23T09:01:50.357Z,99434.69
2022-12-23T09:04:19.986Z,99446.28
2022-12-23T09:06:49.467Z,99434.88
2022-12-23T09:09:21.553Z,99448.94
2022-12-23T09:11:51.060Z,99446.28
2022-12-23T09:14:20.535Z,99444.44
2022-12-23T09:16:53.152Z,99454.91
2022-12-23T09:19:22.642Z,99454.81
2022-12-23T09:21:52.122Z,99445.06
2022-12-23T09:24:24.155Z,99444.03
2022-12-23T09:26:54.011Z,99440.66
2022-12-23T09:29:23.546Z,99446.09
2022-12-23T09:31:53.061Z,99438.44
2022-12-23T09:34:22.529Z,99428.22
2022-12-23T09:36:55.498Z,99423.28
2022-12-23T09:39:27.953Z,99428.84
2022-12-23T09:42:05.234Z,99427.56
2022-12-23T09:44:43.124Z,99428.97
2022-12-23T09:47:15.604Z,99431.69
2022-12-23T09:49:50.227Z,99401.63
2022-12-23T09:52:23.678Z,99403.44
2022-12-23T09:54:57.315Z,99411.19
2022-12-23T09:57:31.806Z,99411.09
2022-12-23T10:00:07.535Z,99410.34
2022-12-23T10:02:47.174Z,99400.59
2022-12-23T10:05:24.306Z,99385.84
2022-12-23T10:07:57.616Z,99373.53
2022-12-23T10:10:36.457Z,99371.78
2022-12-23T10:13:08.196Z,99365.25
2022-12-23T10:15:40.367Z,99366.88
2022-12-23T10:18:15.405Z,99369.25
2022-12-23T10:20:48.657Z,99372.91
2022-12-23T10:23:20.881Z,99367.81
2022-12-23T10:25:55.349Z,99363.66
2022-12-23T10:28:29.601Z,99354.00
2022-12-23T10:31:30.935Z,99339.00
2022-12-23T10:34:00.342Z,99332.72
2022-12-23T10:36:36.971Z,99322.81
2022-12-23T10:39:12.303Z,99318.03
2022-12-23T10:41:49.877Z,99317.00
2022-12-23T10:44:34.802Z,99314.53
2022-12-23T10:47:11.134Z,99320.09
2022-12-23T10:49:46.550Z,99314.88
2022-12-23T10:52:19.712Z,99318.31
2022-12-23T10:54:50.165Z,99304.97
2022-12-23T10:57:23.521Z,99291.66
2022-12-23T10:59:53.875Z,99297.69
2022-12-23T11:02:35.365Z,99294.97
2022-12-23T11:05:05.083Z,99285.97
2022-12-23T11:07:49.919Z,99294.53
2022-12-23T11:10:21.685Z,99288.00
2022-12-23T11:12:55.379Z,99284.41
2022-12-23T11:15:30.522Z,99276.38
2022-12-23T11:18:04.983Z,99267.59
2022-12-23T11:20:35.389Z,99274.66
2022-12-23T11:23:06.199Z,99265.31
2022-12-23T11:25:38.527Z,99268.22
2022-12-23T11:28:15.479Z,99269.25
2022-12-23T11:30:55.866Z,99268.56
2022-12-23T11:33:28.147Z,99266.31
2022-12-23T11:36:09.019Z,99259.31
2022-12-23T11:38:40.486Z,99237.22
2022-12-23T11:41:10.916Z,99233.44
2022-12-23T11:43:43.073Z,99225.19
2022-12-23T11:46:24.493Z,99218.78
2022-12-23T11:49:07.282Z,99211.69
2022-12-23T11:51:36.938Z,99203.00
2022-12-23T11:54:06.793Z,99205.84
2022-12-23T11:56:41.436Z,99192.03
2022-12-23T11:59:29.050Z,99177.50
2022-12-23T12:02:01.127Z,99163.09
2022-12-23T12:04:33.852Z,99156.91
2022-12-23T12:07:03.885Z,99156.88
2022-12-23T12:09:34.499Z,99140.97
2022-12-23T12:12:07.891Z,99133.06
2022-12-23T12:14:46.444Z,99134.53
2022-12-23T12:17:20.160Z,99128.09
2022-12-23T12:19:58.658Z,99121.47
2022-12-23T12:22:35.321Z,99119.94
2022-12-23T12:25:13.912Z,99120.91
2022-12-23T12:27:44.755Z,99116.56
2022-12-23T12:30:21.057Z,99114.00
2022-12-23T12:32:57.608Z,99108.91
2022-12-23T12:35:35.972Z,99106.44
2022-12-23T12:38:09.668Z,99101.41
2022-12-23T12:40:41.747Z,99098.97
2022-12-23T12:43:21.863Z,99092.06
2022-12-23T12:46:07.489Z,99086.09
2022-12-23T12:48:43.960Z,99080.09
2022-12-23T12:51:18.711Z,99077.59
2022-12-23T12:54:04.735Z,99076.06
2022-12-23T12:56:39.491Z,99072.00
2022-12-23T12:59:09.102Z,99051.91
2022-12-23T13:02:03.467Z,99042.56
2022-12-23T13:04:56.459Z,99028.78
2022-12-23T13:07:32.320Z,99023.69
2022-12-23T13:10:07.080Z,99022.16
2022-12-23T13:12:46.031Z,99017.91
2022-12-23T13:15:23.605Z,99019.13
2022-12-23T13:18:07.749Z,99009.59
2022-12-23T13:20:41.064Z,99011.47
2022-12-23T13:23:42.295Z,99017.66
2022-12-23T13:26:11.341Z,99017.84
2022-12-23T13:28:46.628Z,99022.16
2022-12-23T13:31:20.461Z,98958.00
2022-12-23T13:34:00.063Z,98943.19
2022-12-23T13:36:41.629Z,98943.38
2022-12-23T13:39:29.160Z,98931.13
2022-12-23T13:42:05.203Z,98948.75
2022-12-23T13:44:37.255Z,98925.94
2022-12-23T13:47:11.126Z,98917.19
2022-12-23T13:49:54.173Z,98926.75
2022-12-23T13:52:31.434Z,98893.34
2022-12-23T13:55:09.894Z,98893.34
2022-12-23T13:57:49.197Z,98909.16
2022-12-23T14:00:30.728Z,98885.34
2022-12-23T14:03:22.067Z,98887.03
2022-12-23T14:05:55.530Z,98890.41
2022-12-23T14:08:28.715Z,98872.53
2022-12-23T14:11:00.424Z,98860.97
2022-12-23T14:13:31.566Z,98855.59
2022-12-23T14:16:27.245Z,98858.25
2022-12-23T14:19:23.244Z,98843.34
2022-12-23T14:22:04.135Z,98865.22
2022-12-23T14:24:58.021Z,98857.13
2022-12-23T14:27:46.353Z,98849.69
2022-12-23T14:30:18.266Z,98836.19
2022-12-23T14:32:50.611Z,98833.38
2022-12-23T14:35:28.932Z,98859.50
2022-12-23T14:38:27.051Z,98848.53
2022-12-23T14:41:00.925Z,98847.41
2022-12-23T14:43:39.336Z,98839.31
2022-12-23T14:46:09.665Z,98841.66
2022-12-23T14:49:38.397Z,98836.94
2022-12-23T14:52:40.794Z,98823.34
2022-12-23T14:55:44.211Z,98829.09
2022-12-23T14:58:29.545Z,98837.69
2022-12-23T15:01:04.839Z,98846.28
2022-12-23T15:03:37.833Z,98851.34
2022-12-23T15:06:09.391Z,98839.75
2022-12-23T15:08:41.218Z,98834.25
2022-12-23T15:11:16.913Z,98832.47
2022-12-23T15:13:49.625Z,98841.03
2022-12-23T15:16:20.290Z,98836.53
2022-12-23T15:18:56.925Z,98856.69
2022-12-23T15:21:31.771Z,98838.97
2022-12-23T15:24:01.621Z,98842.34
2022-12-23T15:26:33.923Z,98843.75
2022-12-23T15:29:09.925Z,98839.22
2022-12-23T15:31:42.690Z,98850.53
2022-12-23T15:34:17.224Z,98851.28
2022-12-23T15:36:47.323Z,98851.94
2022-12-23T15:39:22.253Z,98843.81
2022-12-23T15:41:51.859Z,98840.97
2022-12-23T15:44:26.512Z,98844.38
2022-12-23T15:46:56.488Z,98847.53
2022-12-23T15:49:26.128Z,98857.94
2022-12-23T15:52:07.798Z,98849.81
2022-12-23T15:54:45.861Z,98861.88
2022-12-23T15:57:21.566Z,98856.38
2022-12-23T15:59:53.950Z,98863.16
2022-12-23T16:05:27.960Z,98865.19
2022-12-23T16:08:12.346Z,98865.75
2022-12-23T16:10:41.908Z,98866.38
2022-12-23T16:13:20.550Z,98878.44
2022-12-23T16:15:52.771Z,98870.22
2022-12-23T16:18:25.621Z,98881.53
2022-12-23T16:20:56.218Z,98890.03
2022-12-23T16:23:28.698Z,98877.56
2022-12-23T16:25:58.272Z,98878.06
2022-12-23T16:28:32.038Z,98871.63
2022-12-23T16:31:04.383Z,98878.41
2022-12-23T16:33:38.744Z,98882.50
2022-12-23T16:36:23.554Z,98887.34
2022-12-23T16:38:55.436Z,98895.84
2022-12-23T16:41:25.086Z,98896.47
2022-12-23T16:43:55.013Z,98903.28
2022-12-23T16:46:27.224Z,98901.13
2022-12-23T16:48:58.486Z,98904.53
2022-12-23T16:51:28.973Z,98899.03
2022-12-23T16:54:00.383Z,98910.16
2022-12-23T16:56:31.635Z,98909.84
2022-12-23T16:59:01.274Z,98914.63
2022-12-23T17:01:35.346Z,98925.75
2022-12-23T17:04:04.803Z,98915.56
2022-12-23T17:06:35.828Z,98935.50
2022-12-23T17:09:06.246Z,98943.94
2022-12-23T17:11:40.026Z,98953.31
2022-12-23T17:14:15.423Z,98952.22
2022-12-23T17:16:48.569Z,98955.63
2022-12-23T17:19:25.217Z,98959.00
2022-12-23T17:22:00.665Z,98968.66
2022-12-23T17:24:30.295Z,98968.66
2022-12-23T17:27:00.326Z,98966.09
2022-12-23T17:29:29.925Z,98984.66
2022-12-23T17:32:02.176Z,98996.09
2022-12-23T17:34:31.884Z,98994.53
2022-12-23T17:37:02.061Z,98994.59
2022-12-23T17:39:31.801Z,99001.94
2022-12-23T17:42:01.427Z,99003.72
2022-12-23T17:44:31.027Z,99012.75
2022-12-23T17:47:03.511Z,99023.44
2022-12-23T17:49:33.126Z,99026.19
2022-12-23T17:52:02.732Z,99031.72
2022-12-23T17:54:32.340Z,99033.53
2022-12-23T17:57:01.905Z,99049.53
2022-12-23T17:59:31.488Z,99035.53
2022-12-23T18:02:03.726Z,99048.97
2022-12-23T18:04:34.467Z,99046.44
2022-12-23T18:07:04.443Z,99050.13
2022-12-23T18:09:34.017Z,99051.09
2022-12-23T18:12:03.616Z,99056.50
2022-12-23T18:14:33.404Z,99054.69
2022-12-23T18:17:05.617Z,99051.19
2022-12-23T18:19:35.264Z,99055.63
2022-12-23T18:22:04.965Z,99054.06
2022-12-23T18:24:34.614Z,99063.34
2022-12-23T18:27:04.215Z,99066.41
2022-12-23T18:29:33.801Z,99076.34
2022-12-23T18:32:06.287Z,99079.19
2022-12-23T18:34:35.915Z,99081.00
2022-12-23T18:37:05.699Z,99080.25
2022-12-23T18:39:35.303Z,99083.72
2022-12-23T18:42:04.905Z,99079.31
2022-12-23T18:44:34.519Z,99075.78
2022-12-23T18:47:06.765Z,99083.66
2022-12-23T18:49:37.657Z,99096.78
2022-12-23T18:52:12.382Z,99087.03
2022-12-23T18:54:42.366Z,99093.09
2022-12-23T18:57:13.468Z,99096.59
2022-12-23T18:59:43.094Z,99101.78
2022-12-23T19:02:16.372Z,99099.88
2022-12-23T19:04:46.079Z,99099.88
2022-12-23T19:07:16.492Z,99112.16
2022-12-23T19:09:46.126Z,99108.56
2022-12-23T19:12:15.735Z,99108.56
2022-12-23T19:14:45.333Z,99108.56
2022-12-23T19:17:17.501Z,99110.28
2022-12-23T19:19:47.118Z,99113.88
2022-12-23T19:22:16.687Z,99111.22
2022-12-23T19:25:03.765Z,99115.69
2022-12-23T19:27:34.753Z,99119.16
2022-12-23T19:30:04.679Z,99120.97
2022-12-23T19:32:36.895Z,99128.91
2022-12-23T19:35:06.780Z,99131.66
2022-12-23T19:37:38.321Z,99129.03
2022-12-23T19:40:09.142Z,99133.56
2022-12-23T19:42:39.693Z,99130.16
2022-12-23T19:45:11.647Z,99144.34
2022-12-23T19:47:43.826Z,99155.88
2022-12-23T19:50:14.347Z,99149.75
2022-12-23T19:52:43.929Z,99166.59
2022-12-23T19:55:13.589Z,99174.53
2022-12-23T19:57:43.151Z,99176.34
2022-12-23T20:00:15.962Z,99180.66
2022-12-23T20:02:51.418Z,99192.00
2022-12-23T20:05:24.745Z,99185.84
2022-12-23T20:07:54.315Z,99186.72
2022-12-23T20:10:23.927Z,99194.66
2022-12-23T20:12:53.519Z,99197.22
2022-12-23T20:15:23.099Z,99200.69
2022-12-23T20:17:55.242Z,99201.56
2022-12-23T20:20:24.833Z,99198.81
2022-12-23T20:22:54.473Z,99211.19
2022-12-23T20:25:24.090Z,99214.72
2022-12-23T20:27:53.801Z,99216.41
2022-12-23T20:30:23.484Z,99220.00
2022-12-23T20:32:55.689Z,99220.84
2022-12-23T20:35:25.245Z,99229.72
2022-12-23T20:37:54.969Z,99229.72
2022-12-23T20:40:24.666Z,99235.13
2022-12-23T20:42:54.232Z,99244.97
2022-12-23T20:45:23.921Z,99242.53
2022-12-23T20:47:56.750Z,99253.13
2022-12-23T20:50:26.313Z,99254.06
2022-12-23T20:52:55.911Z,99257.66
2022-12-23T20:55:25.502Z,99257.66
2022-12-23T20:57:55.102Z,99257.56
2022-12-23T21:00:24.828Z,99267.22
2022-12-23T21:02:57.079Z,99276.00
2022-12-23T21:05:26.695Z,99264.47
2022-12-23T21:07:56.294Z,99274.00
2022-12-23T21:10:25.899Z,99282.69
2022-12-23T21:12:55.522Z,99276.47
2022-12-23T21:15:25.319Z,99280.81
2022-12-23T21:17:57.535Z,99291.31
2022-12-23T21:20:27.226Z,99289.50
2022-12-23T21:22:56.844Z,99287.94
2022-12-23T21:25:26.436Z,99292.84
2022-12-23T21:27:56.076Z,99296.91
2022-12-23T21:30:25.897Z,99305.03
2022-12-23T21:33:00.528Z,99298.03
2022-12-23T21:35:30.150Z,99304.16
2022-12-23T21:37:59.788Z,99295.19
2022-12-23T21:40:30.786Z,99293.31
2022-12-23T21:43:05.337Z,99313.56
2022-12-23T21:45:36.832Z,99327.53
2022-12-23T21:48:09.168Z,99332.19
2022-12-23T21:50:38.769Z,99328.00
2022-12-23T21:53:08.355Z,99341.22
2022-12-23T21:55:37.926Z,99336.91
2022-12-23T21:58:07.506Z,99348.34
2022-12-23T22:00:37.170Z,99351.75
2022-12-23T22:03:09.433Z,99342.84
2022-12-23T22:05:39.084Z,99349.09
2022-12-23T22:08:09.280Z,99351.81
2022-12-23T22:10:40.256Z,99359.84
2022-12-23T22:13:09.844Z,99362.50
2022-12-23T22:15:43.264Z,99368.00
2022-12-23T22:18:15.445Z,99367.91
2022-12-23T22:20:46.489Z,99381.13
2022-12-23T22:23:16.257Z,99379.38
2022-12-23T22:25:45.825Z,99383.78
2022-12-23T22:28:15.436Z,99389.09
2022-12-23T22:30:45.001Z,99374.06
2022-12-23T22:33:17.660Z,99387.38
2022-12-23T22:35:56.865Z,99391.72
2022-12-23T22:38:26.636Z,99395.16
2022-12-23T22:40:56.665Z,99403.19
2022-12-23T22:43:26.755Z,99406.69
2022-12-23T22:46:00.297Z,99415.47
2022-12-23T22:48:33.383Z,99414.53
2022-12-23T22:51:06.425Z,99429.56
2022-12-23T22:53:36.022Z,99433.16
2022-12-23T22:56:07.023Z,99431.34
2022-12-23T22:58:37.101Z,99441.00
2022-12-23T23:01:06.951Z,99441.00
2022-12-23T23:03:39.145Z,99449.78
2022-12-23T23:06:09.864Z,99441.84
2022-12-23T23:08:39.455Z,99456.03
2022-12-23T23:11:09.123Z,99457.91
2022-12-23T23:13:38.722Z,99466.88
2022-12-23T23:16:09.160Z,99464.34
2022-12-23T23:18:42.007Z,99464.44
2022-12-23T23:21:12.988Z,99475.03
2022-12-23T23:23:42.840Z,99479.47
2022-12-23T23:26:13.153Z,99476.81
2022-12-23T23:28:43.609Z,99481.16
2022-12-23T23:34:06.007Z,99491.75
2022-12-23T23:36:35.697Z,99483.88
2022-12-23T23:39:05.390Z,99481.25
2022-12-23T23:41:35.869Z,99486.63
2022-12-23T23:44:05.531Z,99486.63
2022-12-23T23:46:35.457Z,99486.63
2022-12-23T23:49:07.769Z,99492.88
2022-12-23T23:51:37.351Z,99494.75
2022-12-23T23:54:07.610Z,99502.69
2022-12-23T23:56:39.388Z,99505.25
2022-12-23T23:59:10.054Z,99515.09
